createdAt,value
2023-04-15T00:02:22.250Z,10.35
2023-04-15T00:04:50.368Z,10.70
2023-04-15T00:07:18.277Z,10.36
2023-04-15T00:09:46.113Z,9.92
2023-04-15T00:12:13.926Z,9.34
2023-04-15T00:14:41.939Z,10.07
2023-04-15T00:17:09.881Z,9.97
2023-04-15T00:19:38.943Z,8.75
2023-04-15T00:22:09.836Z,8.62
2023-04-15T00:24:37.875Z,9.12
2023-04-15T00:27:05.808Z,9.17
2023-04-15T00:29:35.672Z,8.75
2023-04-15T00:32:03.616Z,7.98
2023-04-15T00:34:32.022Z,8.89
2023-04-15T00:37:01.345Z,9.80
2023-04-15T00:39:29.716Z,9.88
2023-04-15T00:41:58.636Z,10.29
2023-04-15T00:44:26.780Z,10.22
2023-04-15T00:46:55.340Z,10.59
2023-04-15T00:49:25.946Z,9.42
2023-04-15T00:51:53.761Z,8.27
2023-04-15T00:54:23.443Z,8.14
2023-04-15T00:56:52.089Z,7.54
2023-04-15T00:59:20.110Z,7.36
2023-04-15T01:01:48.631Z,7.08
2023-04-15T01:04:17.272Z,6.72
2023-04-15T01:06:45.147Z,6.57
2023-04-15T01:09:12.928Z,6.51
2023-04-15T01:11:42.073Z,6.65
2023-04-15T01:14:10.376Z,5.89
2023-04-15T01:16:39.743Z,5.94
2023-04-15T01:19:10.085Z,7.00
2023-04-15T01:21:38.282Z,8.10
2023-04-15T01:24:10.838Z,7.76
2023-04-15T01:26:42.325Z,7.87
2023-04-15T01:29:10.881Z,8.04
2023-04-15T01:31:38.701Z,7.27
2023-04-15T01:34:06.959Z,7.90
2023-04-15T01:36:35.309Z,8.48
2023-04-15T01:39:03.325Z,8.42
2023-04-15T01:41:31.112Z,8.75
2023-04-15T01:44:00.654Z,9.19
2023-04-15T01:46:28.442Z,9.56
2023-04-15T01:48:56.586Z,9.79
2023-04-15T01:51:26.647Z,9.66
2023-04-15T01:53:56.988Z,9.37
2023-04-15T01:56:25.496Z,8.37
2023-04-15T01:58:53.805Z,8.56
2023-04-15T02:01:23.176Z,8.91
2023-04-15T02:03:51.259Z,9.04
2023-04-15T02:06:19.324Z,9.21
2023-04-15T02:08:50.026Z,7.02
2023-04-15T02:11:18.249Z,5.99
2023-04-15T02:13:46.556Z,5.78
2023-04-15T02:16:18.382Z,5.55
2023-04-15T02:18:48.218Z,5.66
2023-04-15T02:21:16.046Z,5.15
2023-04-15T02:23:44.029Z,5.31
2023-04-15T02:26:14.165Z,5.56
2023-04-15T02:28:41.959Z,6.68
2023-04-15T02:31:09.804Z,6.34
2023-04-15T02:33:37.788Z,5.85
2023-04-15T02:36:07.849Z,7.00
2023-04-15T02:38:35.596Z,7.76
2023-04-15T02:41:03.305Z,7.87
2023-04-15T02:43:36.441Z,8.20
2023-04-15T02:46:04.529Z,8.00
2023-04-15T02:48:32.873Z,7.92
2023-04-15T02:51:16.081Z,7.71
2023-04-15T02:53:44.107Z,7.87
2023-04-15T02:56:12.599Z,8.30
2023-04-15T02:58:43.350Z,8.66
2023-04-15T03:01:11.454Z,8.35
2023-04-15T03:03:40.087Z,8.05
2023-04-15T03:06:08.916Z,7.99
2023-04-15T03:08:38.172Z,8.61
2023-04-15T03:11:06.247Z,8.82
2023-04-15T03:13:36.285Z,9.04
2023-04-15T03:16:11.661Z,9.20
2023-04-15T03:18:39.892Z,9.34
2023-04-15T03:21:08.584Z,9.57
2023-04-15T03:23:40.309Z,9.56
2023-04-15T03:26:08.022Z,9.54
2023-04-15T03:28:35.816Z,7.76
2023-04-15T03:31:03.708Z,8.16
2023-04-15T03:33:31.919Z,8.55
2023-04-15T03:36:00.599Z,8.79
2023-04-15T03:38:31.431Z,8.63
2023-04-15T03:41:00.697Z,7.95
2023-04-15T03:43:28.351Z,8.29
2023-04-15T03:45:56.252Z,8.67
2023-04-15T03:48:24.139Z,9.01
2023-04-15T03:50:52.096Z,8.02
2023-04-15T03:53:19.875Z,8.73
2023-04-15T03:55:47.771Z,8.98
2023-04-15T03:58:16.806Z,9.32
2023-04-15T04:00:44.782Z,9.27
2023-04-15T04:03:12.826Z,9.09
2023-04-15T04:05:41.630Z,9.14
2023-04-15T04:08:09.356Z,8.99
2023-04-15T04:10:37.335Z,8.90
2023-04-15T04:13:05.122Z,8.62
2023-04-15T04:15:34.289Z,8.75
2023-04-15T04:18:02.073Z,7.05
2023-04-15T04:20:31.946Z,5.51
2023-04-15T04:22:59.856Z,5.29
2023-04-15T04:25:27.515Z,5.45
2023-04-15T04:27:55.264Z,5.88
2023-04-15T04:30:22.962Z,5.50
2023-04-15T04:32:52.486Z,6.74
2023-04-15T04:35:20.686Z,7.35
2023-04-15T04:37:48.456Z,6.17
2023-04-15T04:40:16.744Z,6.96
2023-04-15T04:42:45.024Z,6.60
2023-04-15T04:45:12.828Z,7.56
2023-04-15T04:47:40.735Z,8.12
2023-04-15T04:50:10.895Z,8.56
2023-04-15T04:52:39.162Z,8.82
2023-04-15T04:55:08.559Z,8.68
2023-04-15T04:57:37.827Z,8.53
2023-04-15T05:00:08.332Z,6.85
2023-04-15T05:02:36.810Z,5.88
2023-04-15T05:05:06.993Z,5.11
2023-04-15T05:07:37.302Z,4.70
2023-04-15T05:10:05.919Z,4.91
2023-04-15T05:12:34.288Z,5.24
2023-04-15T05:15:02.063Z,5.18
2023-04-15T05:17:31.389Z,4.92
2023-04-15T05:20:01.328Z,5.64
2023-04-15T05:22:29.155Z,5.61
2023-04-15T05:24:58.253Z,5.21
2023-04-15T05:27:28.917Z,5.25
2023-04-15T05:29:57.188Z,5.80
2023-04-15T05:32:25.018Z,5.36
2023-04-15T05:34:52.755Z,5.59
2023-04-15T05:37:22.331Z,6.21
2023-04-15T05:39:49.999Z,6.03
2023-04-15T05:42:19.193Z,6.94
2023-04-15T05:44:47.002Z,7.89
2023-04-15T05:47:14.906Z,8.59
2023-04-15T05:49:44.186Z,7.88
2023-04-15T05:52:11.876Z,7.66
2023-04-15T05:54:39.658Z,7.25
2023-04-15T05:57:07.875Z,7.41
2023-04-15T05:59:39.513Z,7.56
2023-04-15T06:02:10.914Z,7.89
2023-04-15T06:04:39.449Z,7.13
2023-04-15T06:07:07.631Z,6.56
2023-04-15T06:09:36.202Z,6.71
2023-04-15T06:12:04.298Z,6.94
2023-04-15T06:14:32.000Z,8.15
2023-04-15T06:17:01.163Z,8.32
2023-04-15T06:19:29.430Z,9.16
2023-04-15T06:21:57.299Z,9.30
2023-04-15T06:24:25.242Z,9.91
2023-04-15T06:26:54.974Z,9.96
2023-04-15T06:29:22.693Z,9.99
2023-04-15T06:31:50.561Z,10.28
2023-04-15T06:34:19.906Z,10.70
2023-04-15T06:36:48.184Z,10.67
2023-04-15T06:39:16.210Z,10.44
2023-04-15T06:41:44.162Z,8.91
2023-04-15T06:44:16.012Z,9.79
2023-04-15T06:46:43.873Z,10.74
2023-04-15T06:49:12.409Z,10.18
2023-04-15T06:51:41.680Z,9.49
2023-04-15T06:54:09.547Z,8.42
2023-04-15T06:56:37.356Z,9.45
2023-04-15T06:59:05.157Z,10.54
2023-04-15T07:01:33.008Z,9.87
2023-04-15T07:04:01.278Z,10.47
2023-04-15T07:06:29.126Z,10.18
2023-04-15T07:08:58.425Z,9.14
2023-04-15T07:11:27.394Z,8.89
2023-04-15T07:13:55.174Z,8.50
2023-04-15T07:16:23.066Z,9.48
2023-04-15T07:18:51.015Z,10.11
2023-04-15T07:21:18.824Z,10.66
2023-04-15T07:23:46.604Z,8.82
2023-04-15T07:26:15.852Z,9.31
2023-04-15T07:28:43.702Z,8.81
2023-04-15T07:31:11.449Z,8.97
2023-04-15T07:33:39.193Z,8.95
2023-04-15T07:36:10.580Z,9.16
2023-04-15T07:38:38.360Z,10.28
2023-04-15T07:41:06.299Z,10.17
2023-04-15T07:43:35.404Z,10.68
2023-04-15T07:46:03.385Z,10.65
2023-04-15T07:48:31.469Z,11.68
2023-04-15T07:51:00.558Z,11.44
2023-04-15T07:53:28.352Z,12.82
2023-04-15T07:55:56.154Z,14.15
2023-04-15T07:58:23.965Z,14.91
2023-04-15T08:00:55.052Z,15.34
2023-04-15T08:03:23.620Z,12.97
2023-04-15T08:05:51.588Z,14.82
2023-04-15T08:08:19.345Z,15.83
2023-04-15T08:10:47.197Z,15.13
2023-04-15T08:13:14.979Z,14.35
2023-04-15T08:15:43.267Z,13.03
2023-04-15T08:18:12.395Z,12.75
2023-04-15T08:20:40.169Z,13.89
2023-04-15T08:23:08.619Z,13.75
2023-04-15T08:25:36.873Z,13.77
2023-04-15T08:28:05.540Z,14.86
2023-04-15T08:30:33.391Z,15.28
2023-04-15T08:33:03.571Z,15.24
2023-04-15T08:35:34.705Z,13.82
2023-04-15T08:38:02.750Z,13.33
2023-04-15T08:40:43.758Z,14.12
2023-04-15T08:43:15.790Z,16.47
2023-04-15T08:45:44.438Z,15.09
2023-04-15T08:48:17.629Z,14.78
2023-04-15T08:50:47.526Z,16.40
2023-04-15T08:53:16.002Z,17.44
2023-04-15T08:55:45.783Z,19.83
2023-04-15T08:58:14.449Z,21.01
2023-04-15T09:00:42.868Z,22.12
2023-04-15T09:03:13.729Z,22.30
2023-04-15T09:05:41.554Z,22.38
2023-04-15T09:08:12.176Z,22.55
2023-04-15T09:10:39.989Z,21.49
2023-04-15T09:13:07.964Z,20.19
2023-04-15T09:15:39.825Z,21.92
2023-04-15T09:18:07.932Z,22.85
2023-04-15T09:20:41.050Z,20.55
2023-04-15T09:23:14.952Z,19.50
2023-04-15T09:25:43.394Z,19.06
2023-04-15T09:28:11.365Z,20.64
2023-04-15T09:30:39.255Z,21.47
2023-04-15T09:33:08.653Z,20.27
2023-04-15T09:35:38.741Z,19.72
2023-04-15T09:38:08.129Z,20.89
2023-04-15T09:40:39.167Z,21.53
2023-04-15T09:43:07.859Z,20.86
2023-04-15T09:45:37.450Z,19.22
2023-04-15T09:48:18.217Z,20.81
2023-04-15T09:50:46.189Z,20.39
2023-04-15T09:53:17.619Z,19.36
2023-04-15T09:55:48.102Z,19.69
2023-04-15T09:58:23.510Z,19.70
2023-04-15T10:00:52.883Z,19.41
2023-04-15T10:03:22.812Z,19.68
2023-04-15T10:05:52.844Z,19.88
2023-04-15T10:08:21.931Z,19.78
2023-04-15T10:10:51.860Z,19.24
2023-04-15T10:13:22.428Z,19.32
2023-04-15T10:15:54.407Z,20.61
2023-04-15T10:18:24.843Z,21.52
2023-04-15T10:20:53.579Z,22.04
2023-04-15T10:23:21.866Z,21.74
2023-04-15T10:25:53.623Z,21.17
2023-04-15T10:28:22.854Z,21.25
2023-04-15T10:30:50.855Z,19.74
2023-04-15T10:33:20.942Z,20.36
2023-04-15T10:35:50.207Z,20.32
2023-04-15T10:38:37.503Z,20.11
2023-04-15T10:41:20.165Z,18.43
2023-04-15T10:43:54.002Z,18.85
2023-04-15T10:46:35.277Z,18.38
2023-04-15T10:49:08.946Z,18.70
2023-04-15T10:51:41.569Z,19.79
2023-04-15T10:54:14.357Z,20.60
2023-04-15T10:56:44.774Z,20.67
2023-04-15T10:59:12.646Z,19.90
2023-04-15T11:01:56.723Z,19.79
2023-04-15T11:04:43.428Z,19.61
2023-04-15T11:07:11.165Z,18.74
2023-04-15T11:09:41.275Z,18.86
2023-04-15T11:12:11.990Z,18.90
2023-04-15T11:14:43.320Z,19.66
2023-04-15T11:17:11.222Z,18.99
2023-04-15T11:19:39.465Z,19.39
2023-04-15T11:22:10.759Z,20.55
2023-04-15T11:24:47.897Z,20.60
2023-04-15T11:27:23.292Z,22.43
2023-04-15T11:29:51.337Z,21.16
2023-04-15T11:32:22.892Z,21.31
2023-04-15T11:34:53.183Z,19.96
2023-04-15T11:37:29.703Z,20.05
2023-04-15T11:39:57.463Z,20.83
2023-04-15T11:42:31.574Z,20.43
2023-04-15T11:45:12.300Z,20.19
2023-04-15T11:47:43.132Z,19.31
2023-04-15T11:50:18.802Z,19.31
2023-04-15T11:52:56.861Z,19.86
2023-04-15T11:55:25.252Z,18.43
2023-04-15T11:58:08.130Z,17.68
2023-04-15T12:00:37.957Z,14.58
2023-04-15T12:03:25.471Z,13.95
2023-04-15T12:06:07.351Z,13.05
2023-04-15T12:09:12.205Z,12.82
2023-04-15T12:11:43.060Z,12.77
2023-04-15T12:14:14.646Z,13.01
2023-04-15T12:16:49.385Z,13.77
2023-04-15T12:19:23.425Z,13.91
2023-04-15T12:21:51.486Z,13.93
2023-04-15T12:24:22.651Z,13.81
2023-04-15T12:26:52.377Z,13.52
2023-04-15T12:29:25.877Z,13.61
2023-04-15T12:31:54.998Z,13.72
2023-04-15T12:34:30.393Z,13.76
2023-04-15T12:36:59.552Z,14.13
2023-04-15T12:39:30.682Z,14.42
2023-04-15T12:41:59.315Z,14.37
2023-04-15T12:44:29.510Z,14.22
2023-04-15T12:46:58.027Z,14.97
2023-04-15T12:49:26.719Z,15.14
2023-04-15T12:51:55.890Z,15.69
2023-04-15T12:54:24.035Z,15.75
2023-04-15T12:56:52.274Z,15.41
2023-04-15T12:59:19.977Z,15.82
2023-04-15T13:01:49.944Z,15.23
2023-04-15T13:04:22.213Z,15.26
2023-04-15T13:06:50.482Z,14.68
2023-04-15T13:09:18.180Z,14.70
2023-04-15T13:11:46.305Z,15.07
2023-04-15T13:14:14.053Z,15.07
2023-04-15T13:16:42.012Z,15.27
2023-04-15T13:19:11.245Z,15.77
2023-04-15T13:21:41.327Z,15.14
2023-04-15T13:24:09.745Z,15.31
2023-04-15T13:26:37.742Z,15.21
2023-04-15T13:29:05.839Z,15.48
2023-04-15T13:31:33.674Z,15.76
2023-04-15T13:34:01.866Z,15.65
2023-04-15T13:36:31.359Z,15.97
2023-04-15T13:39:00.233Z,15.89
2023-04-15T13:41:28.180Z,16.01
2023-04-15T13:43:56.793Z,15.90
2023-04-15T13:46:26.078Z,15.05
2023-04-15T13:48:56.736Z,15.08
2023-04-15T13:51:24.724Z,15.28
2023-04-15T13:53:54.600Z,14.82
2023-04-15T13:56:22.860Z,15.16
2023-04-15T13:58:51.371Z,15.28
2023-04-15T14:01:19.399Z,15.04
2023-04-15T14:03:47.356Z,15.34
2023-04-15T14:06:18.244Z,15.64
2023-04-15T14:08:46.426Z,15.43
2023-04-15T14:11:15.915Z,14.65
2023-04-15T14:13:43.673Z,14.65
2023-04-15T14:16:11.621Z,14.41
2023-04-15T14:18:39.471Z,14.54
2023-04-15T14:21:09.419Z,14.66
2023-04-15T14:23:37.306Z,14.67
2023-04-15T14:26:05.412Z,13.99
2023-04-15T14:28:34.568Z,14.17
2023-04-15T14:31:02.336Z,14.21
2023-04-15T14:33:30.088Z,13.55
2023-04-15T14:35:57.889Z,13.77
2023-04-15T14:38:25.738Z,13.70
2023-04-15T14:40:53.389Z,13.34
2023-04-15T14:43:21.713Z,13.60
2023-04-15T14:45:52.837Z,13.88
2023-04-15T14:48:21.030Z,13.72
2023-04-15T14:50:48.802Z,13.35
2023-04-15T14:53:16.682Z,13.09
2023-04-15T14:55:45.109Z,13.49
2023-04-15T14:58:13.085Z,13.45
2023-04-15T15:00:44.349Z,13.23
2023-04-15T15:03:14.764Z,13.80
2023-04-15T15:05:44.187Z,14.02
2023-04-15T15:08:12.563Z,13.84
2023-04-15T15:10:49.091Z,14.28
2023-04-15T15:13:18.352Z,13.59
2023-04-15T15:15:46.662Z,13.97
2023-04-15T15:18:16.748Z,13.96
2023-04-15T15:20:44.506Z,13.97
2023-04-15T15:23:12.326Z,13.95
2023-04-15T15:25:40.260Z,14.29
2023-04-15T15:28:08.094Z,13.55
2023-04-15T15:30:35.878Z,13.76
2023-04-15T15:33:03.691Z,13.74
2023-04-15T15:35:34.818Z,13.76
2023-04-15T15:38:05.754Z,13.54
2023-04-15T15:40:36.178Z,12.98
2023-04-15T15:43:04.521Z,12.90
2023-04-15T15:45:32.550Z,12.74
2023-04-15T15:48:00.411Z,13.24
2023-04-15T15:50:28.303Z,12.94
2023-04-15T15:52:58.647Z,13.08
2023-04-15T15:55:28.317Z,13.16
2023-04-15T15:57:56.217Z,13.45
2023-04-15T16:00:25.715Z,13.59
2023-04-15T16:03:06.872Z,13.71
2023-04-15T16:05:35.818Z,13.32
2023-04-15T16:08:05.300Z,13.35
2023-04-15T16:10:33.343Z,13.67
2023-04-15T16:13:01.927Z,13.64
2023-04-15T16:15:32.862Z,13.22
2023-04-15T16:18:00.784Z,13.03
2023-04-15T16:20:29.202Z,12.98
2023-04-15T16:22:58.818Z,12.86
2023-04-15T16:25:28.048Z,12.87
2023-04-15T16:28:05.617Z,12.65
2023-04-15T16:30:49.642Z,12.14
2023-04-15T16:33:17.510Z,12.16
2023-04-15T16:35:45.297Z,12.27
2023-04-15T16:38:13.319Z,12.21
2023-04-15T16:40:42.496Z,12.21
2023-04-15T16:43:11.268Z,12.31
2023-04-15T16:45:39.171Z,12.51
2023-04-15T16:48:08.283Z,12.40
2023-04-15T16:50:37.306Z,12.43
2023-04-15T16:53:07.523Z,11.93
2023-04-15T16:55:35.370Z,12.05
2023-04-15T16:58:05.946Z,11.77
2023-04-15T17:00:36.695Z,12.23
2023-04-15T17:03:04.806Z,12.05
2023-04-15T17:05:32.853Z,12.18
2023-04-15T17:08:00.722Z,11.74
2023-04-15T17:10:28.748Z,11.57
2023-04-15T17:12:57.537Z,12.02
2023-04-15T17:15:27.593Z,12.19
2023-04-15T17:17:55.824Z,12.06
2023-04-15T17:20:23.738Z,11.95
2023-04-15T17:22:54.183Z,11.45
2023-04-15T17:25:24.464Z,12.00
2023-04-15T17:27:52.373Z,12.16
2023-04-15T17:30:20.281Z,12.07
2023-04-15T17:32:49.607Z,11.84
2023-04-15T17:35:17.438Z,11.71
2023-04-15T17:37:45.176Z,12.10
2023-04-15T17:40:14.987Z,11.98
2023-04-15T17:42:42.818Z,11.78
2023-04-15T17:45:11.394Z,11.88
2023-04-15T17:47:39.205Z,11.96
2023-04-15T17:50:09.753Z,11.60
2023-04-15T17:52:37.976Z,11.32
2023-04-15T17:55:06.797Z,11.12
2023-04-15T17:57:34.538Z,10.58
2023-04-15T18:00:02.419Z,10.67
2023-04-15T18:02:40.880Z,10.49
2023-04-15T18:05:10.673Z,10.52
2023-04-15T18:07:38.650Z,10.30
2023-04-15T18:10:12.843Z,10.39
2023-04-15T18:12:42.407Z,10.52
2023-04-15T18:15:12.065Z,11.03
2023-04-15T18:17:39.882Z,10.56
2023-04-15T18:20:10.190Z,10.62
2023-04-15T18:22:38.144Z,10.61
2023-04-15T18:25:06.960Z,10.19
2023-04-15T18:27:38.998Z,10.95
2023-04-15T18:30:08.846Z,10.27
2023-04-15T18:32:37.521Z,10.49
2023-04-15T18:35:06.559Z,10.36
2023-04-15T18:37:35.790Z,9.76
2023-04-15T18:40:03.820Z,10.11
2023-04-15T18:42:31.673Z,9.96
2023-04-15T18:44:59.528Z,9.88
2023-04-15T18:47:27.989Z,10.31
2023-04-15T18:49:55.878Z,10.51
2023-04-15T18:52:25.040Z,10.24
2023-04-15T18:54:54.186Z,10.38
2023-04-15T18:57:23.683Z,10.83
2023-04-15T19:00:00.948Z,10.77
2023-04-15T19:02:28.833Z,10.87
2023-04-15T19:04:56.681Z,10.49
2023-04-15T19:07:24.831Z,10.43
2023-04-15T19:09:54.032Z,10.35
2023-04-15T19:12:21.797Z,10.60
2023-04-15T19:14:49.991Z,10.15
2023-04-15T19:17:17.894Z,10.37
2023-04-15T19:19:48.751Z,10.19
2023-04-15T19:22:16.910Z,10.64
2023-04-15T19:24:44.804Z,10.64
2023-04-15T19:27:15.525Z,10.37
2023-04-15T19:29:45.904Z,10.18
2023-04-15T19:32:14.296Z,10.37
2023-04-15T19:34:42.097Z,10.30
2023-04-15T19:37:10.029Z,9.95
2023-04-15T19:39:39.430Z,10.17
2023-04-15T19:42:07.154Z,10.15
2023-04-15T19:44:37.301Z,10.13
2023-04-15T19:47:05.264Z,10.32
2023-04-15T19:49:33.022Z,10.65
2023-04-15T19:52:00.704Z,9.93
2023-04-15T19:54:28.451Z,10.38
2023-04-15T19:56:56.446Z,10.58
2023-04-15T19:59:24.303Z,10.57
2023-04-15T20:01:53.886Z,10.25
2023-04-15T20:04:22.587Z,10.43
2023-04-15T20:06:51.062Z,10.53
2023-04-15T20:09:18.816Z,10.10
2023-04-15T20:12:46.793Z,10.36
2023-04-15T20:14:37.243Z,10.78
2023-04-15T20:17:07.558Z,10.36
2023-04-15T20:19:36.149Z,10.62
2023-04-15T20:22:03.893Z,10.65
2023-04-15T20:24:31.666Z,10.13
2023-04-15T20:26:59.452Z,10.13
2023-04-15T20:29:27.705Z,10.21
2023-04-15T20:31:56.289Z,9.84
2023-04-15T20:34:25.391Z,9.92
2023-04-15T20:36:56.279Z,10.16
2023-04-15T20:39:24.044Z,10.16
2023-04-15T20:41:54.692Z,10.38
2023-04-15T20:44:22.562Z,10.07
2023-04-15T20:46:52.991Z,10.47
2023-04-15T20:49:20.975Z,10.51
2023-04-15T20:51:50.623Z,10.79
2023-04-15T20:54:19.434Z,10.51
2023-04-15T20:56:47.163Z,10.26
2023-04-15T20:59:14.955Z,10.19
2023-04-15T21:01:42.788Z,10.13
2023-04-15T21:04:10.735Z,10.31
2023-04-15T21:06:38.643Z,10.41
2023-04-15T21:09:07.823Z,10.48
2023-04-15T21:14:08.763Z,10.55
2023-04-15T21:16:36.745Z,10.37
2023-04-15T21:19:04.757Z,10.63
2023-04-15T21:21:32.951Z,10.64
2023-04-15T21:24:03.627Z,10.70
2023-04-15T21:26:32.777Z,11.03
2023-04-15T21:29:00.914Z,10.89
2023-04-15T21:31:28.781Z,10.78
2023-04-15T21:33:56.654Z,10.35
2023-04-15T21:36:24.451Z,10.58
2023-04-15T21:38:52.212Z,10.37
2023-04-15T21:41:20.045Z,10.78
2023-04-15T21:43:49.411Z,10.44
2023-04-15T21:46:22.364Z,10.56
2023-04-15T21:48:53.416Z,10.67
2023-04-15T21:51:21.658Z,10.68
2023-04-15T21:53:49.578Z,10.40
2023-04-15T21:56:20.217Z,10.38
2023-04-15T21:58:49.461Z,10.57
2023-04-15T22:01:21.636Z,10.42
2023-04-15T22:03:49.858Z,10.59
2023-04-15T22:06:19.904Z,10.29
2023-04-15T22:08:56.117Z,10.78
2023-04-15T22:11:35.599Z,10.68
2023-04-15T22:14:05.329Z,10.28
2023-04-15T22:16:33.063Z,10.24
2023-04-15T22:19:02.800Z,10.02
2023-04-15T22:21:33.238Z,10.63
2023-04-15T22:24:38.238Z,10.20
2023-04-15T22:26:49.029Z,10.43
2023-04-15T22:29:18.244Z,10.67
2023-04-15T22:31:46.333Z,10.43
2023-04-15T22:34:20.537Z,10.72
2023-04-15T22:36:48.621Z,10.30
2023-04-15T22:39:16.681Z,10.41
2023-04-15T22:41:44.932Z,10.44
2023-04-15T22:44:12.932Z,9.98
2023-04-15T22:46:42.509Z,10.73
2023-04-15T22:49:11.002Z,10.54
2023-04-15T22:51:38.948Z,10.38
2023-04-15T22:54:06.715Z,10.63
2023-04-15T22:56:34.581Z,10.31
2023-04-15T22:59:02.274Z,10.68
2023-04-15T23:01:31.881Z,10.52
2023-04-15T23:04:05.956Z,9.90
2023-04-15T23:06:38.688Z,10.60
2023-04-15T23:09:06.744Z,10.75
2023-04-15T23:11:34.543Z,10.63
2023-04-15T23:14:03.021Z,10.77
2023-04-15T23:16:32.810Z,10.44
2023-04-15T23:19:02.079Z,10.07
2023-04-15T23:21:29.821Z,9.99
2023-04-15T23:23:57.569Z,10.13
2023-04-15T23:26:25.429Z,10.02
2023-04-15T23:28:53.206Z,10.03
2023-04-15T23:31:20.929Z,10.30
2023-04-15T23:33:48.881Z,10.33
2023-04-15T23:36:18.012Z,9.84
2023-04-15T23:38:46.071Z,10.11
2023-04-15T23:41:13.769Z,10.24
2023-04-15T23:43:41.486Z,10.28
2023-04-15T23:46:09.429Z,10.52
2023-04-15T23:48:37.166Z,10.71
2023-04-15T23:51:05.403Z,10.30
2023-04-15T23:53:34.925Z,10.09
2023-04-15T23:56:02.748Z,10.22
2023-04-15T23:58:31.026Z,10.42
